Luanco, Spain
Current Conditions -  °F | °C
As of 10:30 PM on Wednesday 17 Dec 2014 (Local Time) from LEAS Reporting Station
Scattered Clouds Scattered Clouds  
Wind Chill: 52°   Ceiling: Unl
Heat Index: 52°   Visibility: 6mi
Dew Point: 48°   Wind: 5mph
Humidity: 88%   Direction: 240°WSW
Pressure: 30.42"   Gusts: NA
Location:  43.62°N, 5.79°W
Report Text: LEAS 172130Z 24004KT 9999 FEW030 SCT041 11/09 Q1030 NOSIG
Loading
Personal Weather Stations






























Interactive Weather Map New forecast layout! Learn more

10-Day Weather Forecast

Advertisements
Track Severe Weather on mobile